Time;durP1;ratioP1;P1;durP2;ratioP2;P2;SDS_P1;SDS_P2;PMS_P1;PMS_P2;Temp;Humidity;BMP_temperature;BMP_pressure;BME280_temperature;BME280_humidity;BME280_pressure;Samples;Min_cycle;Max_cycle;Signal;HPM_P1;HPM_P2
2022/07/07 00:00:56;;;;;;;25.35;6.10;;;28.30;82.20;;;;;;5134819;27;20039;-71
2022/07/07 00:04:01;;;;;;;15.07;6.32;;;28.30;82.50;;;;;;5134882;27;20042;-70
2022/07/07 00:07:06;;;;;;;22.73;7.10;;;28.30;82.20;;;;;;5134423;27;20034;-70
2022/07/07 00:10:10;;;;;;;19.55;5.97;;;28.40;81.30;;;;;;5133997;27;20110;-70
2022/07/07 00:13:14;;;;;;;17.23;6.28;;;28.30;81.40;;;;;;5134476;27;20496;-70
2022/07/07 00:16:19;;;;;;;11.25;6.28;;;28.30;80.70;;;;;;5134248;27;20070;-70
2022/07/07 00:19:23;;;;;;;17.85;6.18;;;28.20;80.70;;;;;;5134573;27;20042;-70
2022/07/07 00:22:28;;;;;;;16.73;6.03;;;28.20;81.80;;;;;;5134490;27;20041;-70
2022/07/07 00:25:32;;;;;;;17.08;5.80;;;28.20;81.40;;;;;;5134273;27;20037;-70
2022/07/07 00:28:36;;;;;;;21.10;6.38;;;28.20;81.80;;;;;;5134522;27;20046;-70
2022/07/07 00:31:40;;;;;;;23.23;6.82;;;28.10;80.90;;;;;;5134318;27;20038;-70
2022/07/07 00:34:46;;;;;;;15.55;6.32;;;28.20;80.60;;;;;;5134015;27;20058;-70
2022/07/07 00:37:51;;;;;;;14.23;6.20;;;28.20;80.90;;;;;;5134090;27;20058;-70
2022/07/07 00:40:55;;;;;;;16.77;6.47;;;28.20;81.00;;;;;;5134072;27;20038;-71
2022/07/07 00:43:58;;;;;;;18.98;7.00;;;28.20;81.20;;;;;;5134067;27;20050;-70
2022/07/07 00:47:05;;;;;;;14.57;6.57;;;28.10;81.50;;;;;;5133629;27;20046;-70
2022/07/07 00:50:10;;;;;;;18.00;6.95;;;28.10;81.50;;;;;;5134199;27;20586;-70
2022/07/07 00:53:15;;;;;;;13.77;7.00;;;27.90;82.00;;;;;;5133860;27;20046;-70
2022/07/07 00:56:19;;;;;;;16.33;6.50;;;27.90;81.10;;;;;;5133835;27;20057;-71
2022/07/07 00:59:23;;;;;;;16.35;6.38;;;27.80;81.80;;;;;;5133958;27;20038;-70
2022/07/07 01:02:30;;;;;;;18.88;6.50;;;27.70;81.90;;;;;;5133420;27;20401;-70
2022/07/07 01:05:36;;;;;;;18.60;6.30;;;27.70;81.40;;;;;;5133717;27;20050;-70
2022/07/07 01:08:40;;;;;;;16.50;6.40;;;27.70;81.60;;;;;;5133590;27;20042;-70
2022/07/07 01:11:55;;;;;;;13.27;6.05;;;27.60;81.90;;;;;;5133413;27;20050;-70
2022/07/07 01:14:58;;;;;;;19.40;7.13;;;27.60;81.40;;;;;;5133302;27;20046;-70
2022/07/07 01:18:03;;;;;;;15.85;6.72;;;27.60;81.30;;;;;;5133464;27;20058;-70
2022/07/07 01:21:09;;;;;;;23.58;6.97;;;27.60;81.70;;;;;;5133009;27;20147;-69
2022/07/07 01:24:13;;;;;;;19.75;6.60;;;27.50;81.90;;;;;;5133097;27;20046;-70
2022/07/07 01:27:19;;;;;;;11.90;6.13;;;27.50;82.20;;;;;;5133041;27;20386;-70
2022/07/07 01:30:24;;;;;;;20.20;7.15;;;27.50;81.10;;;;;;5132879;27;20047;-69
2022/07/07 01:33:28;;;;;;;18.00;7.00;;;27.50;81.50;;;;;;5132869;27;20034;-70
2022/07/07 01:36:32;;;;;;;15.93;6.50;;;27.40;82.20;;;;;;5132728;27;20453;-70
2022/07/07 01:39:37;;;;;;;13.93;6.55;;;27.50;82.50;;;;;;5132940;27;20493;-70
2022/07/07 01:42:41;;;;;;;19.65;7.32;;;27.50;81.90;;;;;;5132707;27;20046;-70
2022/07/07 01:45:45;;;;;;;13.13;6.82;;;27.40;81.70;;;;;;5131190;27;20058;-70
2022/07/07 01:48:50;;;;;;;20.63;5.78;;;27.40;82.30;;;;;;5132867;27;20050;-70
2022/07/07 01:51:54;;;;;;;14.35;6.38;;;27.30;82.30;;;;;;5132692;27;20143;-70
2022/07/07 01:54:57;;;;;;;13.75;6.43;;;27.20;82.70;;;;;;5132886;27;20053;-70
2022/07/07 01:58:01;;;;;;;15.05;6.32;;;27.20;83.30;;;;;;5132695;27;20054;-70
2022/07/07 02:01:05;;;;;;;22.67;6.72;;;27.20;83.30;;;;;;5132332;27;20042;-70
2022/07/07 02:04:12;;;;;;;17.42;6.50;;;27.20;83.40;;;;;;5132490;27;20034;-70
2022/07/07 02:07:16;;;;;;;22.85;6.30;;;27.30;83.20;;;;;;5132881;27;20505;-70
2022/07/07 02:13:51;;;;;;;24.00;7.45;;;27.10;83.90;;;;;;5132083;27;20489;-70
2022/07/07 02:16:55;;;;;;;16.23;6.72;;;27.00;84.60;;;;;;5132181;27;20050;-72
2022/07/07 02:19:59;;;;;;;18.90;6.53;;;26.90;84.60;;;;;;5132394;27;20493;-70
2022/07/07 02:23:03;;;;;;;13.30;6.03;;;26.70;84.80;;;;;;5132366;27;20046;-70
2022/07/07 02:26:07;;;;;;;11.82;5.13;;;26.60;85.10;;;;;;5131314;27;20390;-70
2022/07/07 02:29:11;;;;;;;15.70;4.65;;;26.60;84.40;;;;;;5132270;27;20413;-70
2022/07/07 02:32:15;;;;;;;12.10;4.28;;;26.60;82.40;;;;;;5132177;27;20038;-70
2022/07/07 02:35:19;;;;;;;9.38;3.88;;;26.60;81.90;;;;;;5132165;28;20054;-70
2022/07/07 02:38:23;;;;;;;10.35;5.03;;;26.60;81.80;;;;;;5131935;27;20402;-70
2022/07/07 02:41:27;;;;;;;13.43;4.30;;;26.60;81.70;;;;;;5131999;28;20516;-70
2022/07/07 02:44:31;;;;;;;14.30;4.00;;;26.60;81.40;;;;;;5131983;28;20508;-70
2022/07/07 02:47:35;;;;;;;11.35;4.15;;;26.60;81.50;;;;;;5132200;28;20062;-70
2022/07/07 02:50:40;;;;;;;18.75;5.15;;;26.40;82.10;;;;;;5132014;28;20050;-71
2022/07/07 02:53:44;;;;;;;9.65;4.18;;;26.30;82.90;;;;;;5131802;27;20034;-70
2022/07/07 02:56:47;;;;;;;12.27;4.13;;;26.30;82.60;;;;;;5132923;27;20535;-70
2022/07/07 02:59:51;;;;;;;7.00;3.78;;;26.40;82.30;;;;;;5135982;27;20112;-70
2022/07/07 03:02:56;;;;;;;8.45;4.28;;;26.40;82.00;;;;;;5134878;27;20035;-70
2022/07/07 03:06:00;;;;;;;8.35;4.47;;;26.30;81.90;;;;;;5135762;27;20497;-70
2022/07/07 03:09:04;;;;;;;12.35;4.47;;;25.90;83.00;;;;;;5136057;27;20042;-70
2022/07/07 03:12:08;;;;;;;12.63;5.20;;;25.70;84.20;;;;;;5135671;27;20132;-71
2022/07/07 03:15:13;;;;;;;9.23;4.07;;;25.70;84.10;;;;;;5135717;27;20588;-70
2022/07/07 03:18:18;;;;;;;14.35;4.45;;;25.70;84.40;;;;;;5135642;27;20039;-70
2022/07/07 03:21:22;;;;;;;10.68;4.15;;;25.70;84.70;;;;;;5135710;27;20042;-70
2022/07/07 03:24:27;;;;;;;11.75;4.68;;;25.80;84.10;;;;;;5135405;27;20042;-70
2022/07/07 03:27:31;;;;;;;13.75;4.68;;;25.80;84.00;;;;;;5135702;27;20046;-70
2022/07/07 03:30:35;;;;;;;12.13;4.10;;;25.90;83.90;;;;;;5135347;27;20038;-70
2022/07/07 03:33:39;;;;;;;14.45;4.82;;;26.00;83.10;;;;;;5135451;27;20386;-70
2022/07/07 03:36:43;;;;;;;10.35;4.45;;;26.10;83.00;;;;;;5135029;27;20037;-70
2022/07/07 03:39:47;;;;;;;9.10;4.15;;;26.20;82.80;;;;;;5135501;27;20493;-70
2022/07/07 03:42:51;;;;;;;10.32;4.47;;;26.20;82.60;;;;;;5135398;27;20039;-71
2022/07/07 03:45:55;;;;;;;16.30;4.68;;;26.20;82.50;;;;;;5134864;27;20054;-71
2022/07/07 03:48:59;;;;;;;14.27;4.50;;;26.00;82.90;;;;;;5135179;27;20382;-71
2022/07/07 03:52:03;;;;;;;13.10;4.88;;;25.90;83.50;;;;;;5134935;27;20039;-71
2022/07/07 03:55:08;;;;;;;15.23;4.72;;;25.70;83.50;;;;;;5135029;27;20504;-71
2022/07/07 03:58:12;;;;;;;12.48;4.18;;;25.70;84.00;;;;;;5134438;27;20546;-71
2022/07/07 04:01:16;;;;;;;13.98;5.28;;;25.70;83.90;;;;;;5134937;27;20477;-70
2022/07/07 04:04:20;;;;;;;10.43;4.68;;;25.60;84.10;;;;;;5134712;27;20038;-71
2022/07/07 04:07:24;;;;;;;14.13;4.68;;;25.60;84.30;;;;;;5134079;27;20034;-71
2022/07/07 04:10:28;;;;;;;10.43;4.47;;;25.50;84.50;;;;;;5134668;27;20046;-71
2022/07/07 04:13:32;;;;;;;17.25;5.00;;;25.60;84.60;;;;;;5134500;27;20042;-71
2022/07/07 04:16:36;;;;;;;13.15;4.18;;;25.60;84.30;;;;;;5134566;27;20050;-71
2022/07/07 04:19:40;;;;;;;15.52;4.20;;;25.50;84.10;;;;;;5134603;27;20489;-71
2022/07/07 04:22:43;;;;;;;17.75;4.10;;;25.70;83.70;;;;;;5134923;27;20046;-70
2022/07/07 04:25:48;;;;;;;9.25;4.43;;;25.70;83.40;;;;;;5134484;27;20047;-71
2022/07/07 04:28:52;;;;;;;12.05;3.97;;;26.00;82.80;;;;;;5134396;27;20043;-71
2022/07/07 04:31:56;;;;;;;14.00;4.00;;;26.20;82.10;;;;;;5134034;27;20042;-71
2022/07/07 04:35:00;;;;;;;11.10;3.90;;;26.20;81.60;;;;;;5134432;27;20112;-71
2022/07/07 04:38:04;;;;;;;12.40;3.97;;;26.20;81.80;;;;;;5134077;27;20046;-71
2022/07/07 04:41:08;;;;;;;11.48;4.03;;;26.30;82.10;;;;;;5134270;27;20065;-71
2022/07/07 04:44:12;;;;;;;16.90;4.18;;;26.40;82.10;;;;;;5133917;27;20046;-71
2022/07/07 04:47:17;;;;;;;13.05;5.03;;;26.60;81.90;;;;;;5134196;27;20046;-71
2022/07/07 04:50:21;;;;;;;17.80;4.00;;;27.00;80.60;;;;;;5134095;27;20382;-71
2022/07/07 04:53:24;;;;;;;32.17;5.53;;;27.30;79.80;;;;;;5133451;27;20042;-71
2022/07/07 04:56:29;;;;;;;19.25;5.38;;;27.70;79.00;;;;;;5133423;27;20042;-71
2022/07/07 04:59:33;;;;;;;17.63;5.82;;;28.00;78.00;;;;;;5133646;27;20409;-71
2022/07/07 05:02:37;;;;;;;18.67;4.80;;;28.30;77.40;;;;;;5133575;27;20038;-71
2022/07/07 05:05:41;;;;;;;13.98;5.03;;;28.40;77.10;;;;;;5133292;27;20038;-71
2022/07/07 05:08:45;;;;;;;19.45;4.72;;;28.50;76.80;;;;;;5132492;27;20034;-71
2022/07/07 05:11:49;;;;;;;15.23;4.28;;;28.60;76.90;;;;;;5133523;27;20038;-71
2022/07/07 05:14:53;;;;;;;17.80;4.72;;;28.80;76.30;;;;;;5133221;27;20497;-71
2022/07/07 05:17:57;;;;;;;9.10;4.55;;;29.00;76.00;;;;;;5133127;27;20053;-71
2022/07/07 05:21:01;;;;;;;11.50;4.60;;;29.10;76.30;;;;;;5132558;27;20031;-71
2022/07/07 05:24:06;;;;;;;19.67;3.92;;;29.20;76.40;;;;;;5133286;27;20402;-71
2022/07/07 05:27:10;;;;;;;14.80;4.90;;;29.30;76.10;;;;;;5132822;27;20046;-71
2022/07/07 05:30:15;;;;;;;24.48;5.00;;;29.40;76.10;;;;;;5132844;27;20038;-71
2022/07/07 05:33:18;;;;;;;18.55;5.13;;;29.40;76.20;;;;;;5133272;27;20045;-71
2022/07/07 05:36:22;;;;;;;18.38;5.18;;;29.50;76.90;;;;;;5132746;27;20038;-71
2022/07/07 05:39:28;;;;;;;25.80;5.63;;;29.70;76.30;;;;;;5133035;27;20505;-71
2022/07/07 05:42:32;;;;;;;25.77;6.03;;;29.90;76.10;;;;;;5132687;27;20430;-71
2022/07/07 05:45:36;;;;;;;22.73;5.75;;;30.00;75.90;;;;;;5132617;27;20057;-71
2022/07/07 05:48:40;;;;;;;20.63;5.65;;;30.10;75.70;;;;;;5132830;27;20058;-71
2022/07/07 05:51:44;;;;;;;15.15;5.68;;;30.20;75.50;;;;;;5132644;27;20050;-71
2022/07/07 05:54:48;;;;;;;37.28;5.82;;;30.40;75.50;;;;;;5132499;27;20042;-71
2022/07/07 05:57:52;;;;;;;18.25;6.47;;;30.50;74.90;;;;;;5132598;27;20050;-71
2022/07/07 06:00:57;;;;;;;18.77;5.63;;;30.60;74.80;;;;;;5132451;27;20386;-71
2022/07/07 06:04:01;;;;;;;15.55;5.22;;;30.50;75.00;;;;;;5132624;27;20046;-79
2022/07/07 06:07:05;;;;;;;17.95;5.97;;;30.40;75.60;;;;;;5132500;27;20046;-78
2022/07/07 06:10:28;;;;;;;20.20;6.00;;;30.30;75.60;;;;;;5132336;27;20042;-75
2022/07/07 06:13:32;;;;;;;15.98;5.35;;;30.40;76.00;;;;;;5132218;27;20505;-77
2022/07/07 06:16:40;;;;;;;19.20;4.90;;;30.50;76.30;;;;;;5132035;27;20062;-77
2022/07/07 06:19:47;;;;;;;22.95;5.07;;;30.60;76.90;;;;;;5132046;27;20045;-77
2022/07/07 06:22:51;;;;;;;23.65;4.93;;;30.60;77.30;;;;;;5132274;27;20038;-73
2022/07/07 06:25:55;;;;;;;20.83;4.97;;;30.40;77.20;;;;;;5132146;27;20505;-72
2022/07/07 06:28:59;;;;;;;26.70;5.72;;;30.20;78.30;;;;;;5132179;27;20062;-75
2022/07/07 06:32:03;;;;;;;24.10;6.40;;;30.20;78.90;;;;;;5131807;27;20034;-73
2022/07/07 06:35:08;;;;;;;27.88;6.30;;;30.20;78.60;;;;;;5131903;27;20041;-72
2022/07/07 06:38:13;;;;;;;23.08;5.90;;;30.40;78.40;;;;;;5132004;28;20066;-74
2022/07/07 06:41:17;;;;;;;29.08;6.03;;;30.60;78.20;;;;;;5131824;28;20034;-74
2022/07/07 06:44:21;;;;;;;26.00;5.35;;;30.80;77.40;;;;;;5131612;27;20050;-72
2022/07/07 06:47:25;;;;;;;15.13;4.70;;;31.10;77.00;;;;;;5132163;28;20050;-71
2022/07/07 06:50:29;;;;;;;26.77;5.80;;;31.60;75.60;;;;;;5131139;28;20062;-75
2022/07/07 06:53:33;;;;;;;19.13;5.18;;;32.10;74.10;;;;;;5132028;28;20046;-73
2022/07/07 06:56:37;;;;;;;22.88;5.07;;;32.10;73.70;;;;;;5131431;28;20046;-74
2022/07/07 06:59:41;;;;;;;13.77;4.20;;;32.40;72.60;;;;;;5131828;27;20066;-72
2022/07/07 07:02:46;;;;;;;30.15;5.07;;;32.60;70.60;;;;;;5130651;28;20038;-72
2022/07/07 07:05:50;;;;;;;26.35;5.72;;;32.70;71.10;;;;;;5130234;27;20050;-72
2022/07/07 07:08:55;;;;;;;17.42;5.15;;;33.00;70.40;;;;;;5130357;27;20050;-75
2022/07/07 07:11:59;;;;;;;23.50;5.30;;;33.10;70.10;;;;;;5130199;27;20046;-73
2022/07/07 07:15:04;;;;;;;18.88;5.32;;;33.40;69.40;;;;;;5130625;27;20395;-72
2022/07/07 07:18:08;;;;;;;18.13;5.15;;;33.60;69.30;;;;;;5130143;28;20414;-74
2022/07/07 07:21:13;;;;;;;17.20;5.43;;;33.90;68.50;;;;;;5131609;28;20050;-73
2022/07/07 07:24:17;;;;;;;18.90;5.57;;;34.00;67.90;;;;;;5131495;28;20061;-73
2022/07/07 07:27:21;;;;;;;21.73;5.78;;;33.80;68.20;;;;;;5131688;27;20189;-72
2022/07/07 07:30:25;;;;;;;21.55;6.03;;;33.60;69.20;;;;;;5131748;27;20394;-73
2022/07/07 07:33:31;;;;;;;34.92;6.35;;;33.50;69.60;;;;;;5131978;28;20046;-70
2022/07/07 07:36:35;;;;;;;21.25;6.18;;;33.20;70.20;;;;;;5130625;27;20050;-75
2022/07/07 07:39:39;;;;;;;18.30;6.20;;;32.80;70.80;;;;;;5131642;27;20405;-74
2022/07/07 07:42:43;;;;;;;15.30;5.60;;;32.60;71.20;;;;;;5132359;27;20042;-72
2022/07/07 07:45:47;;;;;;;27.92;7.18;;;32.40;71.50;;;;;;5135038;27;20061;-73
2022/07/07 07:48:51;;;;;;;25.08;6.03;;;32.40;71.90;;;;;;5135338;27;20496;-71
2022/07/07 07:51:55;;;;;;;17.77;5.53;;;32.80;70.80;;;;;;5135062;27;20038;-69
2022/07/07 07:54:59;;;;;;;19.42;5.53;;;32.80;70.20;;;;;;5134156;27;20410;-70
2022/07/07 07:58:03;;;;;;;19.45;5.15;;;32.70;70.40;;;;;;5134965;27;20054;-72
2022/07/07 08:01:07;;;;;;;17.13;4.72;;;32.90;70.80;;;;;;5134719;27;20038;-74
2022/07/07 08:04:12;;;;;;;15.70;4.82;;;33.00;71.10;;;;;;5135078;27;20050;-73
2022/07/07 08:07:15;;;;;;;16.48;5.10;;;33.10;70.90;;;;;;5134997;27;20054;-72
2022/07/07 08:10:19;;;;;;;17.55;5.47;;;33.10;70.90;;;;;;5134037;27;20038;-75
2022/07/07 08:13:23;;;;;;;16.88;5.15;;;33.00;71.60;;;;;;5134547;27;20042;-72
2022/07/07 08:16:28;;;;;;;12.15;4.75;;;33.10;73.20;;;;;;5134347;27;20042;-70
2022/07/07 08:19:32;;;;;;;17.77;4.53;;;33.10;72.60;;;;;;5134770;27;20147;-74
2022/07/07 08:22:36;;;;;;;20.85;5.00;;;33.10;73.10;;;;;;5134390;27;20382;-72
2022/07/07 08:25:40;;;;;;;16.50;4.13;;;33.10;72.90;;;;;;5121784;27;20046;-75
2022/07/07 08:28:44;;;;;;;18.48;3.83;;;33.20;72.20;;;;;;5134503;27;20394;-71
2022/07/07 08:31:48;;;;;;;12.23;3.63;;;33.40;71.70;;;;;;5133372;27;20050;-71
2022/07/07 08:34:52;;;;;;;17.80;3.95;;;33.50;71.60;;;;;;5133013;27;20046;-71
2022/07/07 08:37:56;;;;;;;10.35;4.53;;;33.30;72.70;;;;;;5131452;27;20054;-72
2022/07/07 08:41:03;;;;;;;14.30;4.20;;;33.00;73.80;;;;;;5133055;27;20038;-71
2022/07/07 08:44:08;;;;;;;14.82;4.43;;;32.80;75.30;;;;;;5133550;27;20065;-70
2022/07/07 08:47:12;;;;;;;14.30;4.40;;;32.80;75.60;;;;;;5132276;27;20050;-71
2022/07/07 08:50:16;;;;;;;20.08;4.90;;;32.60;76.60;;;;;;5134015;27;20642;-70
2022/07/07 08:53:21;;;;;;;26.90;4.78;;;32.40;77.30;;;;;;5132598;27;20097;-72
2022/07/07 08:56:25;;;;;;;17.08;3.78;;;32.20;78.60;;;;;;5130719;27;20054;-70
2022/07/07 08:59:29;;;;;;;17.20;4.35;;;31.90;79.70;;;;;;5131738;27;20050;-70
2022/07/07 09:02:33;;;;;;;25.90;4.93;;;31.70;79.80;;;;;;5131963;27;20046;-69
2022/07/07 09:05:37;;;;;;;20.20;4.30;;;31.60;79.90;;;;;;5130826;27;20046;-69
2022/07/07 09:08:41;;;;;;;10.00;3.20;;;31.60;80.00;;;;;;5132236;27;20513;-69
2022/07/07 09:11:45;;;;;;;11.63;3.72;;;31.90;79.40;;;;;;5133493;27;20046;-71
2022/07/07 09:14:52;;;;;;;12.40;4.30;;;32.20;78.90;;;;;;5133133;27;20058;-70
2022/07/07 09:17:56;;;;;;;10.45;3.38;;;32.70;78.60;;;;;;5132338;27;20057;-70
2022/07/07 09:21:03;;;;;;;12.00;4.10;;;32.90;76.90;;;;;;5133424;27;20038;-69
2022/07/07 09:24:07;;;;;;;10.80;3.13;;;33.20;75.70;;;;;;5132606;27;20038;-69
2022/07/07 09:27:11;;;;;;;15.38;3.63;;;33.40;73.00;;;;;;5133107;27;20402;-69
2022/07/07 09:30:26;;;;;;;14.15;3.47;;;33.40;73.70;;;;;;5133181;27;20492;-70
2022/07/07 09:33:30;;;;;;;14.15;3.75;;;33.50;72.80;;;;;;5132654;27;20042;-69
2022/07/07 09:39:58;;;;;;;9.63;3.13;;;33.50;72.70;;;;;;5132760;27;20112;-69
2022/07/07 09:43:02;;;;;;;12.68;3.20;;;33.40;72.80;;;;;;5132793;27;20042;-68
2022/07/07 09:46:08;;;;;;;11.02;3.22;;;33.60;71.70;;;;;;5132345;27;20042;-69
2022/07/07 09:49:12;;;;;;;14.05;3.70;;;33.80;72.60;;;;;;5132631;27;20608;-70
2022/07/07 09:52:17;;;;;;;8.38;3.15;;;33.90;70.90;;;;;;5132670;27;20525;-69
2022/07/07 09:55:23;;;;;;;12.25;3.17;;;34.10;70.40;;;;;;5132674;27;20039;-70
2022/07/07 09:58:27;;;;;;;8.00;3.50;;;34.20;69.50;;;;;;5132378;27;20053;-70
2022/07/07 10:01:34;;;;;;;14.55;3.55;;;34.30;66.60;;;;;;5132453;27;20038;-69
2022/07/07 10:04:39;;;;;;;14.52;3.63;;;34.10;66.00;;;;;;5132422;27;20366;-70
2022/07/07 10:07:48;;;;;;;10.75;3.35;;;34.00;67.40;;;;;;5132474;27;20050;-71
2022/07/07 10:10:53;;;;;;;14.93;3.20;;;34.00;66.80;;;;;;5131942;27;20382;-68
2022/07/07 10:14:07;;;;;;;9.70;3.25;;;33.90;67.40;;;;;;5131992;27;20038;-70
2022/07/07 10:17:12;;;;;;;8.55;3.75;;;34.10;66.10;;;;;;5132068;27;20104;-69
2022/07/07 10:20:16;;;;;;;9.57;4.05;;;34.30;66.20;;;;;;5132073;27;20050;-70
2022/07/07 10:23:23;;;;;;;12.43;3.60;;;34.40;65.30;;;;;;5131604;27;20046;-69
2022/07/07 10:26:52;;;;;;;10.23;3.20;;;34.50;65.00;;;;;;5132146;27;20049;-70
2022/07/07 10:30:00;;;;;;;6.55;3.15;;;34.60;64.40;;;;;;5132269;27;20117;-70
2022/07/07 10:33:05;;;;;;;10.43;3.15;;;34.60;64.10;;;;;;5132272;27;20054;-70
2022/07/07 10:36:08;;;;;;;16.20;4.22;;;34.60;63.90;;;;;;5131964;27;20042;-69
2022/07/07 10:39:14;;;;;;;12.73;3.85;;;34.70;64.60;;;;;;5131554;28;20054;-70
2022/07/07 10:42:28;;;;;;;13.02;3.65;;;34.70;64.40;;;;;;5131861;28;20043;-69
2022/07/07 10:45:32;;;;;;;10.13;3.83;;;34.60;65.00;;;;;;5131721;28;20062;-69
2022/07/07 10:48:49;;;;;;;11.05;3.60;;;34.50;65.10;;;;;;5131505;27;20038;-71
2022/07/07 10:51:55;;;;;;;9.13;3.30;;;34.50;65.50;;;;;;5131381;28;20046;-70
2022/07/07 10:55:03;;;;;;;23.05;3.90;;;34.60;65.60;;;;;;5131404;27;20144;-68
2022/07/07 10:58:08;;;;;;;10.52;3.83;;;34.50;65.40;;;;;;5130823;28;20046;-69
2022/07/07 11:01:13;;;;;;;14.07;3.70;;;34.40;65.70;;;;;;5131781;28;20050;-71
2022/07/07 11:04:38;;;;;;;15.25;4.93;;;34.50;65.60;;;;;;5131818;28;20498;-70
2022/07/07 11:07:55;;;;;;;9.88;3.40;;;34.50;66.30;;;;;;5131559;27;20068;-70
2022/07/07 11:11:01;;;;;;;8.35;3.17;;;34.40;65.80;;;;;;5131744;28;20044;-71
2022/07/07 11:14:10;;;;;;;10.88;3.45;;;34.50;66.20;;;;;;5131639;28;20035;-70
2022/07/07 11:17:23;;;;;;;11.77;4.35;;;34.50;66.10;;;;;;5131576;27;20050;-71
2022/07/07 11:20:29;;;;;;;12.68;3.75;;;34.50;66.10;;;;;;5135865;27;20055;-70
2022/07/07 11:23:55;;;;;;;19.27;3.58;;;34.50;65.60;;;;;;5135575;27;20047;-70
2022/07/07 11:27:01;;;;;;;13.88;3.30;;;34.40;65.20;;;;;;5135312;27;20038;-70
2022/07/07 11:30:07;;;;;;;15.80;3.33;;;34.30;64.60;;;;;;5134434;27;20046;-70
2022/07/07 11:33:11;;;;;;;18.02;3.53;;;34.20;66.30;;;;;;5135069;27;20046;-70
2022/07/07 11:36:18;;;;;;;11.93;3.63;;;34.20;67.70;;;;;;5135229;27;20046;-70
2022/07/07 11:39:23;;;;;;;18.23;3.35;;;34.20;67.60;;;;;;5134318;27;20054;-73
2022/07/07 11:42:35;;;;;;;10.40;3.10;;;34.20;68.50;;;;;;5135427;27;20038;-72
2022/07/07 11:45:39;;;;;;;18.17;3.40;;;34.20;68.90;;;;;;5134874;27;20054;-71
2022/07/07 11:48:43;;;;;;;17.05;3.88;;;34.30;68.60;;;;;;5135436;27;20042;-71
2022/07/07 11:51:47;;;;;;;34.05;4.30;;;34.20;68.30;;;;;;5134913;27;20116;-71
2022/07/07 11:54:52;;;;;;;15.75;3.47;;;34.10;69.20;;;;;;5135091;27;20047;-71
2022/07/07 11:58:01;;;;;;;23.42;4.07;;;34.00;69.10;;;;;;5135054;27;20076;-71
2022/07/07 12:01:05;;;;;;;12.90;3.97;;;34.00;69.70;;;;;;5135204;27;20061;-71
2022/07/07 12:04:22;;;;;;;16.58;3.70;;;34.00;69.40;;;;;;5134976;27;20038;-71
2022/07/07 12:07:26;;;;;;;10.95;3.03;;;34.00;68.80;;;;;;5135030;27;20394;-71
2022/07/07 12:10:42;;;;;;;13.93;3.67;;;34.00;68.80;;;;;;5135271;27;20050;-71
2022/07/07 12:13:46;;;;;;;15.85;3.15;;;33.90;69.00;;;;;;5134801;27;20046;-71
2022/07/07 12:16:52;;;;;;;15.27;3.50;;;33.90;68.60;;;;;;5134689;27;20042;-71
2022/07/07 12:19:56;;;;;;;12.02;2.97;;;33.90;68.30;;;;;;5134655;27;20042;-71
2022/07/07 12:23:02;;;;;;;11.85;3.38;;;33.80;68.70;;;;;;5134859;27;20038;-71
2022/07/07 12:26:10;;;;;;;19.33;3.65;;;33.80;68.80;;;;;;5134684;27;20034;-72
2022/07/07 12:29:15;;;;;;;14.25;3.83;;;33.80;69.50;;;;;;5134190;27;20038;-71
2022/07/07 12:32:23;;;;;;;15.05;3.10;;;33.80;68.80;;;;;;5134492;27;20046;-69
2022/07/07 12:35:32;;;;;;;17.65;3.55;;;33.80;67.90;;;;;;5134222;27;20042;-71
2022/07/07 12:38:42;;;;;;;15.70;3.42;;;33.80;67.70;;;;;;5134479;27;20054;-70
2022/07/07 12:41:55;;;;;;;13.27;3.72;;;34.10;66.50;;;;;;5134391;27;20078;-69
2022/07/07 12:45:09;;;;;;;12.70;2.88;;;35.30;64.60;;;;;;5133773;27;20509;-70
2022/07/07 12:48:17;;;;;;;10.98;3.13;;;36.00;61.80;;;;;;5134429;27;20046;-69
2022/07/07 12:51:26;;;;;;;16.98;3.22;;;36.20;60.60;;;;;;5134406;27;20065;-69
2022/07/07 12:54:31;;;;;;;11.52;2.85;;;36.90;61.00;;;;;;5134219;27;20505;-69
2022/07/07 12:57:35;;;;;;;11.20;2.90;;;37.40;59.60;;;;;;5133829;27;20045;-70
2022/07/07 13:00:54;;;;;;;20.90;3.15;;;37.90;58.20;;;;;;5134183;27;20399;-67
2022/07/07 13:03:59;;;;;;;29.90;8.83;;;37.90;58.30;;;;;;5133776;27;20532;-69
2022/07/07 13:07:03;;;;;;;14.27;3.20;;;37.70;59.00;;;;;;5132543;27;20050;-70
2022/07/07 13:10:08;;;;;;;13.00;3.30;;;37.40;58.90;;;;;;5133812;27;20058;-67
2022/07/07 13:13:12;;;;;;;15.77;3.10;;;37.20;59.10;;;;;;5133591;27;20034;-68
2022/07/07 13:16:16;;;;;;;15.45;3.47;;;37.30;59.40;;;;;;5133354;27;20046;-68
2022/07/07 13:19:20;;;;;;;12.05;3.05;;;37.20;60.40;;;;;;5133336;27;20050;-68
2022/07/07 13:22:24;;;;;;;13.55;2.78;;;37.50;59.60;;;;;;5133521;27;20084;-68
2022/07/07 13:25:29;;;;;;;18.80;3.22;;;37.60;59.60;;;;;;5133549;27;20046;-69
2022/07/07 13:28:34;;;;;;;14.25;3.35;;;37.80;60.10;;;;;;5133373;27;20050;-68
2022/07/07 13:31:41;;;;;;;9.77;2.92;;;37.50;59.90;;;;;;5133237;27;20034;-68
2022/07/07 13:34:45;;;;;;;18.30;3.47;;;37.30;60.60;;;;;;5132973;27;20044;-70
2022/07/07 13:37:49;;;;;;;14.88;3.28;;;37.40;59.80;;;;;;5133115;27;20046;-69
2022/07/07 13:40:53;;;;;;;17.23;3.70;;;37.30;59.60;;;;;;5132465;27;20516;-69
2022/07/07 13:43:58;;;;;;;22.85;3.90;;;37.20;59.60;;;;;;5132756;27;20050;-68
2022/07/07 13:47:02;;;;;;;13.02;2.70;;;37.00;59.80;;;;;;5132674;27;20517;-71
2022/07/07 13:50:12;;;;;;;15.02;3.35;;;37.10;60.50;;;;;;5131813;27;20042;-71
2022/07/07 13:53:16;;;;;;;17.23;2.90;;;37.10;60.30;;;;;;5132569;27;20188;-70
2022/07/07 13:56:20;;;;;;;10.68;3.13;;;37.00;60.70;;;;;;5132973;27;20046;-70
2022/07/07 13:59:23;;;;;;;18.25;3.53;;;37.10;60.60;;;;;;5132622;27;20145;-69
2022/07/07 14:02:27;;;;;;;14.68;3.25;;;37.20;60.70;;;;;;5132903;27;20394;-70
2022/07/07 14:05:32;;;;;;;12.82;2.70;;;37.30;60.20;;;;;;5132441;27;20046;-69
2022/07/07 14:08:36;;;;;;;11.88;2.63;;;37.10;60.50;;;;;;5132298;27;20049;-67
2022/07/07 14:11:40;;;;;;;14.73;2.90;;;36.70;61.40;;;;;;5132518;27;20509;-69
2022/07/07 14:14:45;;;;;;;13.88;2.53;;;36.50;61.60;;;;;;5132086;27;20042;-70
2022/07/07 14:17:49;;;;;;;14.13;2.97;;;36.30;61.50;;;;;;5132216;27;20045;-70
2022/07/07 14:20:53;;;;;;;16.75;3.25;;;36.20;61.80;;;;;;5132289;27;20050;-69
2022/07/07 14:23:57;;;;;;;26.75;4.03;;;36.20;61.50;;;;;;5132126;27;20151;-70
2022/07/07 14:27:01;;;;;;;18.58;2.90;;;36.40;61.40;;;;;;5132380;27;20054;-70
2022/07/07 14:30:06;;;;;;;13.70;3.10;;;36.90;61.10;;;;;;5131891;27;20612;-69
2022/07/07 14:33:10;;;;;;;14.35;2.50;;;37.10;60.60;;;;;;5131990;27;20125;-71
2022/07/07 14:36:15;;;;;;;10.80;2.75;;;37.20;61.10;;;;;;5132005;27;20050;-69
2022/07/07 14:39:19;;;;;;;14.90;2.50;;;37.10;61.30;;;;;;5132236;27;20101;-69
2022/07/07 14:42:23;;;;;;;11.48;2.83;;;36.90;62.40;;;;;;5132437;28;20387;-69
2022/07/07 14:45:27;;;;;;;13.30;2.67;;;37.00;62.40;;;;;;5131907;27;20067;-68
2022/07/07 14:48:32;;;;;;;11.82;2.80;;;36.70;63.40;;;;;;5132045;28;20042;-70
2022/07/07 14:51:35;;;;;;;16.40;3.35;;;36.50;63.40;;;;;;5131911;27;20039;-71
2022/07/07 14:54:40;;;;;;;11.95;2.55;;;36.60;63.40;;;;;;5136288;27;20046;-69
2022/07/07 14:57:44;;;;;;;16.23;3.10;;;36.30;64.30;;;;;;5136565;27;20038;-70
2022/07/07 15:00:48;;;;;;;13.65;3.33;;;36.40;64.90;;;;;;5136331;27;20531;-71
2022/07/07 15:03:53;;;;;;;12.48;2.67;;;36.60;65.20;;;;;;5136013;27;20046;-70
2022/07/07 15:06:57;;;;;;;8.15;2.33;;;36.50;64.70;;;;;;5137230;27;20038;-70
2022/07/07 15:10:01;;;;;;;13.35;3.25;;;36.70;64.30;;;;;;5139232;27;20031;-72
2022/07/07 15:13:05;;;;;;;11.75;3.05;;;36.70;63.90;;;;;;5135418;27;20046;-71
2022/07/07 15:16:10;;;;;;;14.02;3.13;;;36.10;65.00;;;;;;5134636;27;20046;-72
2022/07/07 15:19:14;;;;;;;10.25;2.78;;;35.40;65.90;;;;;;5135388;27;20054;-71
2022/07/07 15:22:18;;;;;;;20.98;2.70;;;34.90;67.30;;;;;;5143234;27;20042;-72
2022/07/07 15:25:23;;;;;;;12.38;2.33;;;34.50;68.20;;;;;;5153892;27;20034;-71
2022/07/07 15:28:28;;;;;;;12.48;2.65;;;34.20;68.90;;;;;;5157534;27;20045;-70
2022/07/07 15:31:32;;;;;;;15.07;2.97;;;34.00;69.60;;;;;;5159284;27;20029;-71
2022/07/07 15:34:40;;;;;;;12.45;2.95;;;33.80;70.10;;;;;;5157107;27;20025;-71
2022/07/07 15:37:44;;;;;;;12.00;2.55;;;33.70;70.20;;;;;;5156797;27;20045;-70
2022/07/07 15:40:48;;;;;;;20.70;3.00;;;33.70;70.40;;;;;;5146228;27;20054;-70
2022/07/07 15:43:52;;;;;;;11.75;2.83;;;33.70;70.60;;;;;;5154867;27;20034;-72
2022/07/07 15:46:57;;;;;;;13.48;2.92;;;33.50;70.70;;;;;;5155865;27;20057;-71
2022/07/07 15:50:01;;;;;;;13.23;2.63;;;33.40;71.00;;;;;;5148131;27;20192;-70
2022/07/07 15:53:05;;;;;;;19.95;3.38;;;33.30;71.20;;;;;;5140064;27;20105;-70
2022/07/07 15:56:10;;;;;;;14.23;3.03;;;33.10;72.00;;;;;;5136055;27;20525;-70
2022/07/07 15:59:15;;;;;;;13.70;3.05;;;33.00;72.20;;;;;;5135247;27;20050;-71